Time;durP1;ratioP1;P1;durP2;ratioP2;P2;SDS_P1;SDS_P2;PMS_P1;PMS_P2;Temp;Humidity;BMP_temperature;BMP_pressure;BME280_temperature;BME280_humidity;BME280_pressure;Samples;Min_cycle;Max_cycle;Signal;HPM_P1;HPM_P2
2023/10/29 00:01:05;;;;;;;;;;;;;;;18.36;58.30;99303.94;5067602;28;19919;-78
2023/10/29 00:03:30;;;;;;;;;;;;;;;18.29;58.05;99302.44;5052248;28;19913;-77
2023/10/29 00:05:55;;;;;;;;;;;;;;;18.24;58.19;99308.47;5050600;28;20432;-77
2023/10/29 00:08:21;;;;;;;;;;;;;;;18.22;58.26;99307.09;5051779;28;19932;-77
2023/10/29 00:10:46;;;;;;;;;;;;;;;18.22;58.33;99315.09;5052081;28;19956;-77
2023/10/29 00:13:11;;;;;;;;;;;;;;;18.17;58.07;99310.44;5051807;28;19913;-78
2023/10/29 00:15:37;;;;;;;;;;;;;;;18.18;58.01;99319.28;5051987;28;19917;-78
2023/10/29 00:18:05;;;;;;;;;;;;;;;18.15;58.16;99314.41;5067429;28;20408;-77
2023/10/29 00:20:30;;;;;;;;;;;;;;;18.14;57.46;99318.94;5052166;28;19919;-78
2023/10/29 00:22:56;;;;;;;;;;;;;;;18.10;57.44;99320.44;5052032;28;19913;-77
2023/10/29 00:25:21;;;;;;;;;;;;;;;18.06;57.76;99321.94;5051795;28;19913;-77
2023/10/29 00:27:46;;;;;;;;;;;;;;;18.01;57.72;99324.50;5051774;28;19920;-77
2023/10/29 00:30:12;;;;;;;;;;;;;;;17.96;57.93;99324.38;5051716;28;20354;-77
2023/10/29 00:32:37;;;;;;;;;;;;;;;17.91;57.79;99326.94;5051717;28;19912;-77
2023/10/29 00:35:03;;;;;;;;;;;;;;;17.90;57.89;99322.66;5051825;28;20064;-77
2023/10/29 00:37:28;;;;;;;;;;;;;;;17.89;57.31;99329.03;5051843;28;19913;-77
2023/10/29 00:39:53;;;;;;;;;;;;;;;17.86;57.68;99332.97;5051759;28;19913;-77
2023/10/29 00:42:19;;;;;;;;;;;;;;;17.88;57.63;99332.75;5051766;28;19913;-77
2023/10/29 00:44:44;;;;;;;;;;;;;;;17.89;57.47;99337.03;5052403;28;19919;-78
2023/10/29 00:47:10;;;;;;;;;;;;;;;17.87;57.55;99337.28;5051937;28;19916;-77
2023/10/29 00:49:35;;;;;;;;;;;;;;;17.86;57.18;99337.50;5051638;28;19913;-77
2023/10/29 00:52:01;;;;;;;;;;;;;;;17.81;57.37;99329.34;5066930;28;20373;-77
2023/10/29 00:54:26;;;;;;;;;;;;;;;17.79;57.66;99335.72;5051492;28;19962;-77
2023/10/29 00:56:53;;;;;;;;;;;;;;;17.76;57.74;99338.03;5051673;28;19913;-76
2023/10/29 00:59:20;;;;;;;;;;;;;;;17.72;57.45;99340.34;5051622;28;19916;-76
2023/10/29 01:01:46;;;;;;;;;;;;;;;17.71;57.18;99338.72;5050287;28;20354;-76
2023/10/29 01:04:11;;;;;;;;;;;;;;;17.72;57.53;99336.88;5051214;28;19962;-77
2023/10/29 01:06:38;;;;;;;;;;;;;;;17.75;57.29;99345.22;5051294;28;19966;-76
2023/10/29 01:09:05;;;;;;;;;;;;;;;17.82;56.77;99347.00;5054096;28;20286;-77
2023/10/29 01:11:30;;;;;;;;;;;;;;;17.83;57.02;99348.63;5055369;28;19913;-76
2023/10/29 01:13:55;;;;;;;;;;;;;;;17.84;57.08;99350.28;5055437;28;19909;-77
2023/10/29 01:16:20;;;;;;;;;;;;;;;17.78;56.72;99346.63;5054065;28;20314;-77
2023/10/29 01:18:47;;;;;;;;;;;;;;;17.77;56.91;99350.34;5055461;28;19909;-76
2023/10/29 01:21:12;;;;;;;;;;;;;;;17.74;56.84;99354.28;5055289;28;20006;-77
2023/10/29 01:23:38;;;;;;;;;;;;;;;17.73;56.74;99355.34;5055267;28;20355;-76
2023/10/29 01:26:03;;;;;;;;;;;;;;;17.72;57.03;99356.38;5055059;28;19912;-77
2023/10/29 01:28:28;;;;;;;;;;;;;;;17.72;56.81;99372.41;5054986;28;19923;-77
2023/10/29 01:30:54;;;;;;;;;;;;;;;17.73;56.93;99368.69;5054946;28;19913;-77
2023/10/29 01:33:19;;;;;;;;;;;;;;;17.75;57.14;99366.59;5055171;28;20308;-77
2023/10/29 01:35:45;;;;;;;;;;;;;;;17.77;56.82;99372.53;5054922;28;19966;-77
2023/10/29 01:38:10;;;;;;;;;;;;;;;17.83;56.61;99378.00;5055050;28;19919;-76
2023/10/29 01:40:35;;;;;;;;;;;;;;;17.83;57.07;99378.00;5055040;28;19935;-76
2023/10/29 01:43:01;;;;;;;;;;;;;;;17.83;56.92;99369.97;5054804;28;19962;-76
2023/10/29 01:45:26;;;;;;;;;;;;;;;17.79;56.93;99373.09;5055226;28;19956;-76
2023/10/29 01:47:51;;;;;;;;;;;;;;;17.73;56.93;99371.34;5054457;28;19925;-75
2023/10/29 01:50:16;;;;;;;;;;;;;;;17.72;57.15;99384.94;5054461;28;20018;-76
2023/10/29 01:52:42;;;;;;;;;;;;;;;17.69;57.30;99380.06;5054578;28;19923;-77
2023/10/29 01:55:08;;;;;;;;;;;;;;;17.70;57.03;99384.34;5054393;28;20363;-77
2023/10/29 01:57:36;;;;;;;;;;;;;;;17.73;57.11;99376.69;5054504;28;20445;-77
2023/10/29 02:00:05;;;;;;;;;;;;;;;17.80;57.03;99387.28;5054339;28;19995;-78
2023/10/29 02:02:30;;;;;;;;;;;;;;;17.87;57.04;99387.22;5054354;28;19967;-78
2023/10/29 02:04:55;;;;;;;;;;;;;;;17.90;56.91;99381.41;5054276;28;19924;-76
2023/10/29 02:07:20;;;;;;;;;;;;;;;17.91;56.78;99385.69;5054143;28;19917;-78
2023/10/29 02:09:46;;;;;;;;;;;;;;;17.97;56.90;99392.78;5069524;28;19913;-79
2023/10/29 02:12:11;;;;;;;;;;;;;;;17.96;56.90;99391.16;5054227;28;19913;-79
2023/10/29 02:14:38;;;;;;;;;;;;;;;17.97;56.94;99387.47;5054367;28;19920;-76
2023/10/29 02:17:04;;;;;;;;;;;;;;;17.93;57.08;99388.97;5054267;28;19905;-77
2023/10/29 02:19:29;;;;;;;;;;;;;;;17.86;57.12;99388.25;5054013;28;19912;-77
2023/10/29 02:21:54;;;;;;;;;;;;;;;17.83;57.19;99400.16;5054160;28;20008;-78
2023/10/29 02:24:20;;;;;;;;;;;;;;;17.79;57.59;99394.47;5054164;28;20333;-78
2023/10/29 02:26:45;;;;;;;;;;;;;;;17.74;57.65;99397.00;5054189;28;20374;-78
2023/10/29 02:29:10;;;;;;;;;;;;;;;17.72;57.80;99391.09;5053892;28;19912;-78
2023/10/29 02:31:35;;;;;;;;;;;;;;;17.75;57.63;99398.66;5053877;28;19916;-78
2023/10/29 02:34:01;;;;;;;;;;;;;;;17.75;57.87;99395.97;5053906;28;19920;-77
2023/10/29 02:36:26;;;;;;;;;;;;;;;17.78;57.63;99400.03;5052474;28;20408;-77
2023/10/29 02:38:51;;;;;;;;;;;;;;;17.80;57.75;99405.97;5053698;28;19917;-77
2023/10/29 02:41:17;;;;;;;;;;;;;;;17.84;57.90;99411.69;5053762;28;20287;-75
2023/10/29 02:43:42;;;;;;;;;;;;;;;17.88;57.86;99411.00;5052310;28;19981;-78
2023/10/29 02:46:07;;;;;;;;;;;;;;;17.90;57.86;99414.28;5053762;28;19970;-77
2023/10/29 02:48:32;;;;;;;;;;;;;;;17.91;57.72;99415.91;5053769;28;20043;-77
2023/10/29 02:50:58;;;;;;;;;;;;;;;17.93;57.62;99423.69;5053538;28;20377;-78
2023/10/29 02:53:23;;;;;;;;;;;;;;;17.93;57.83;99418.34;5053726;28;19967;-77
2023/10/29 02:55:48;;;;;;;;;;;;;;;17.92;57.93;99422.88;5053374;28;19912;-76
2023/10/29 02:58:14;;;;;;;;;;;;;;;17.92;57.99;99422.06;5053600;28;20384;-77
2023/10/29 03:00:39;;;;;;;;;;;;;;;17.91;58.00;99423.09;5053800;28;19913;-75
2023/10/29 03:03:05;;;;;;;;;;;;;;;17.91;58.11;99423.09;5053500;28;19913;-77
2023/10/29 03:05:30;;;;;;;;;;;;;;;17.90;57.96;99427.63;5053375;28;20083;-77
2023/10/29 03:07:56;;;;;;;;;;;;;;;17.92;58.07;99428.22;5053406;28;20034;-77
2023/10/29 03:10:22;;;;;;;;;;;;;;;17.90;58.18;99429.47;5052130;28;20309;-78
2023/10/29 03:12:47;;;;;;;;;;;;;;;17.90;58.15;99440.16;5053342;28;19917;-78
2023/10/29 03:15:12;;;;;;;;;;;;;;;17.89;58.34;99436.69;5053198;28;19912;-78
2023/10/29 03:17:37;;;;;;;;;;;;;;;17.90;58.47;99440.16;5051834;28;19924;-75
2023/10/29 03:20:03;;;;;;;;;;;;;;;17.90;58.46;99430.31;5053339;28;19919;-78
2023/10/29 03:22:28;;;;;;;;;;;;;;;17.91;58.42;99433.78;5053380;28;20279;-78
2023/10/29 03:24:53;;;;;;;;;;;;;;;17.89;58.74;99439.34;5053275;28;20314;-78
2023/10/29 03:27:19;;;;;;;;;;;;;;;17.88;58.55;99437.72;5068271;28;19917;-78
2023/10/29 03:29:44;;;;;;;;;;;;;;;17.91;58.46;99449.81;5052937;28;19979;-78
2023/10/29 03:32:09;;;;;;;;;;;;;;;17.87;58.67;99452.13;5052358;28;19925;-76
2023/10/29 03:34:35;;;;;;;;;;;;;;;17.87;58.97;99441.44;5052939;28;20742;-76
2023/10/29 03:37:01;;;;;;;;;;;;;;;17.86;58.76;99449.69;5052960;28;19999;-75
2023/10/29 03:39:26;;;;;;;;;;;;;;;17.86;58.77;99447.00;5052915;28;20001;-77
2023/10/29 03:41:51;;;;;;;;;;;;;;;17.85;58.64;99453.38;5053070;28;20349;-77
2023/10/29 03:44:17;;;;;;;;;;;;;;;17.86;58.81;99460.38;5053348;28;19912;-77
2023/10/29 03:46:42;;;;;;;;;;;;;;;17.86;58.75;99460.38;5056357;28;20348;-78
2023/10/29 03:49:08;;;;;;;;;;;;;;;17.88;58.73;99464.44;5054919;28;19913;-77
2023/10/29 03:51:34;;;;;;;;;;;;;;;17.87;58.64;99459.31;5053887;28;19920;-77
2023/10/29 03:53:59;;;;;;;;;;;;;;;17.85;58.48;99467.56;5052598;28;20313;-77
2023/10/29 03:56:24;;;;;;;;;;;;;;;17.80;58.69;99467.41;5052413;28;19919;-78
2023/10/29 03:58:49;;;;;;;;;;;;;;;17.78;58.83;99464.94;5051173;28;19980;-78
2023/10/29 04:01:15;;;;;;;;;;;;;;;17.74;58.87;99461.09;5052534;28;19982;-77
2023/10/29 04:03:43;;;;;;;;;;;;;;;17.73;59.00;99464.00;5052653;28;19935;-77
2023/10/29 04:06:09;;;;;;;;;;;;;;;17.71;59.06;99472.25;5052250;28;19943;-77
2023/10/29 04:08:35;;;;;;;;;;;;;;;17.72;58.95;99479.22;5067748;28;20251;-79
2023/10/29 04:11:00;;;;;;;;;;;;;;;17.72;58.84;99484.53;5052063;28;19999;-77
2023/10/29 04:13:26;;;;;;;;;;;;;;;17.71;58.97;99479.44;5050767;28;19966;-77
2023/10/29 04:15:51;;;;;;;;;;;;;;;17.70;58.88;99483.16;5052155;28;19913;-78
2023/10/29 04:18:17;;;;;;;;;;;;;;;17.70;58.91;99491.97;5052006;28;20459;-76
2023/10/29 04:20:42;;;;;;;;;;;;;;;17.68;58.96;99486.03;5050694;28;20389;-78
2023/10/29 04:23:07;;;;;;;;;;;;;;;17.68;58.72;99490.56;5052124;28;19917;-77
2023/10/29 04:25:33;;;;;;;;;;;;;;;17.64;58.84;99492.03;5051926;28;19916;-78
2023/10/29 04:27:58;;;;;;;;;;;;;;;17.62;58.74;99486.91;5051724;28;19917;-77
2023/10/29 04:30:23;;;;;;;;;;;;;;;17.61;58.79;99498.63;5051752;28;19935;-77
2023/10/29 04:32:49;;;;;;;;;;;;;;;17.56;59.01;99506.50;5051921;28;19999;-77
2023/10/29 04:35:14;;;;;;;;;;;;;;;17.54;58.87;99500.56;5051782;28;20306;-77
2023/10/29 04:37:39;;;;;;;;;;;;;;;17.53;58.85;99503.47;5050405;28;19995;-77
2023/10/29 04:40:05;;;;;;;;;;;;;;;17.53;58.85;99504.28;5051660;28;19919;-78
2023/10/29 04:42:30;;;;;;;;;;;;;;;17.52;58.88;99505.31;5051795;28;19913;-77
2023/10/29 04:44:55;;;;;;;;;;;;;;;17.49;58.94;99519.09;5051807;28;19962;-77
2023/10/29 04:47:20;;;;;;;;;;;;;;;17.50;58.72;99519.94;5051633;28;19987;-78
2023/10/29 04:49:46;;;;;;;;;;;;;;;17.47;58.84;99523.84;5051570;28;19913;-77
2023/10/29 04:52:11;;;;;;;;;;;;;;;17.47;58.87;99529.19;5051475;28;19920;-77
2023/10/29 04:54:36;;;;;;;;;;;;;;;17.44;59.01;99537.66;5051435;28;20279;-77
2023/10/29 04:57:02;;;;;;;;;;;;;;;17.42;59.09;99542.41;5051385;28;19920;-77
2023/10/29 04:59:27;;;;;;;;;;;;;;;17.36;59.04;99535.28;5051489;28;19920;-76
2023/10/29 05:01:53;;;;;;;;;;;;;;;17.36;59.07;99543.28;5051434;28;19913;-77
2023/10/29 05:04:18;;;;;;;;;;;;;;;17.33;59.04;99549.88;5051436;28;19913;-75
2023/10/29 05:06:43;;;;;;;;;;;;;;;17.32;59.03;99555.44;5051488;28;20412;-77
2023/10/29 05:09:09;;;;;;;;;;;;;;;17.33;59.01;99554.41;5052226;28;19920;-77
2023/10/29 05:11:35;;;;;;;;;;;;;;;17.31;59.02;99557.28;5051745;28;19917;-77
2023/10/29 05:14:00;;;;;;;;;;;;;;;17.30;59.12;99552.19;5051333;28;19909;-77
2023/10/29 05:16:26;;;;;;;;;;;;;;;17.25;58.84;99555.50;5051388;28;19929;-77
2023/10/29 05:18:51;;;;;;;;;;;;;;;17.19;58.97;99564.41;5050171;28;20370;-77
2023/10/29 05:21:16;;;;;;;;;;;;;;;17.17;59.07;99563.81;5050153;28;19912;-77
2023/10/29 05:23:42;;;;;;;;;;;;;;;17.18;59.01;99567.28;5051306;28;20003;-77
2023/10/29 05:26:07;;;;;;;;;;;;;;;17.16;59.01;99567.50;5051361;28;20370;-77
2023/10/29 05:28:32;;;;;;;;;;;;;;;17.09;59.08;99570.22;5051314;28;19923;-77
2023/10/29 05:30:57;;;;;;;;;;;;;;;17.09;58.82;99572.91;5050078;28;19923;-77
2023/10/29 05:33:23;;;;;;;;;;;;;;;17.09;58.71;99578.25;5051426;28;19935;-77
2023/10/29 05:35:48;;;;;;;;;;;;;;;17.04;58.66;99574.56;5051530;28;20309;-77
2023/10/29 05:38:13;;;;;;;;;;;;;;;17.03;58.47;99581.75;5051436;28;20381;-76
2023/10/29 05:40:39;;;;;;;;;;;;;;;17.06;58.69;99585.84;5050421;28;19913;-77
2023/10/29 05:43:04;;;;;;;;;;;;;;;17.08;58.38;99592.59;5066460;28;19913;-78
2023/10/29 05:45:30;;;;;;;;;;;;;;;17.09;58.56;99604.91;5051124;28;19919;-76
2023/10/29 05:47:56;;;;;;;;;;;;;;;17.10;58.46;99617.22;5051126;28;19917;-78
2023/10/29 05:50:22;;;;;;;;;;;;;;;17.10;58.37;99608.41;5051047;28;20385;-78
2023/10/29 05:52:48;;;;;;;;;;;;;;;17.11;58.36;99600.19;5051131;28;19980;-77
2023/10/29 05:55:13;;;;;;;;;;;;;;;17.09;58.25;99604.06;5053624;28;20055;-78
2023/10/29 05:57:39;;;;;;;;;;;;;;;17.09;58.49;99609.41;5054614;28;19913;-77
2023/10/29 06:00:04;;;;;;;;;;;;;;;17.12;58.32;99619.66;5069891;28;19919;-78
2023/10/29 06:02:29;;;;;;;;;;;;;;;17.17;58.17;99622.50;5054444;28;19913;-77
2023/10/29 06:04:55;;;;;;;;;;;;;;;17.18;58.01;99628.66;5054388;28;19982;-78
2023/10/29 06:07:20;;;;;;;;;;;;;;;17.19;58.16;99627.63;5054430;28;19924;-78
2023/10/29 06:09:48;;;;;;;;;;;;;;;17.12;58.21;99631.16;5054478;28;20377;-77
2023/10/29 06:12:13;;;;;;;;;;;;;;;17.13;58.13;99643.47;5054468;28;19919;-77
2023/10/29 06:14:38;;;;;;;;;;;;;;;17.15;58.19;99637.91;5069751;28;19984;-77
2023/10/29 06:17:04;;;;;;;;;;;;;;;17.22;58.01;99638.66;5054540;28;19995;-77
2023/10/29 06:19:29;;;;;;;;;;;;;;;17.27;58.02;99641.50;5054509;28;19919;-77
2023/10/29 06:21:54;;;;;;;;;;;;;;;17.33;57.74;99645.13;5054484;28;20460;-77
2023/10/29 06:24:20;;;;;;;;;;;;;;;17.38;57.82;99637.28;5053969;28;19913;-77
2023/10/29 06:26:45;;;;;;;;;;;;;;;17.42;57.82;99651.81;5053813;28;19962;-77
2023/10/29 06:29:10;;;;;;;;;;;;;;;17.47;57.30;99649.31;5053867;28;20401;-76
2023/10/29 06:31:36;;;;;;;;;;;;;;;17.49;57.56;99647.25;5054048;28;19913;-76
2023/10/29 06:34:01;;;;;;;;;;;;;;;17.53;57.53;99648.44;5053987;28;20290;-76
2023/10/29 06:36:27;;;;;;;;;;;;;;;17.61;57.44;99650.00;5053769;28;19924;-76
2023/10/29 06:38:52;;;;;;;;;;;;;;;17.67;57.34;99654.50;5053950;28;20413;-78
2023/10/29 06:41:17;;;;;;;;;;;;;;;17.76;57.28;99661.97;5053887;28;19943;-77
2023/10/29 06:43:43;;;;;;;;;;;;;;;17.86;57.23;99663.34;5053922;28;19935;-78
2023/10/29 06:46:08;;;;;;;;;;;;;;;17.95;57.02;99659.34;5052332;28;20003;-78
2023/10/29 06:48:35;;;;;;;;;;;;;;;18.04;57.04;99674.03;5053609;28;19935;-78
2023/10/29 06:51:00;;;;;;;;;;;;;;;18.11;56.74;99669.44;5053667;28;20376;-76
2023/10/29 06:53:26;;;;;;;;;;;;;;;18.19;56.76;99673.66;5053672;28;19956;-75
2023/10/29 06:55:51;;;;;;;;;;;;;;;18.25;56.81;99678.09;5053556;28;19970;-75
2023/10/29 06:58:16;;;;;;;;;;;;;;;18.28;56.67;99678.47;5053519;28;19960;-77
2023/10/29 07:00:41;;;;;;;;;;;;;;;18.34;56.71;99685.59;5053395;28;20443;-78
2023/10/29 07:03:07;;;;;;;;;;;;;;;18.42;56.72;99682.59;5053405;28;20363;-77
2023/10/29 07:05:32;;;;;;;;;;;;;;;18.50;56.58;99681.47;5052136;28;19928;-78
2023/10/29 07:07:58;;;;;;;;;;;;;;;18.58;56.47;99683.03;5053293;28;20286;-78
2023/10/29 07:10:24;;;;;;;;;;;;;;;18.65;56.38;99679.28;5053394;28;19920;-75
2023/10/29 07:12:49;;;;;;;;;;;;;;;18.71;56.46;99683.72;5053272;28;19912;-77
2023/10/29 07:15:14;;;;;;;;;;;;;;;18.78;56.18;99677.44;5053218;28;20282;-77
2023/10/29 07:17:40;;;;;;;;;;;;;;;18.82;56.26;99679.44;5053165;28;20305;-77
2023/10/29 07:20:05;;;;;;;;;;;;;;;18.87;55.86;99678.75;5068679;28;20320;-77
2023/10/29 07:22:30;;;;;;;;;;;;;;;18.94;55.89;99682.16;5053243;28;19912;-77
2023/10/29 07:24:56;;;;;;;;;;;;;;;18.99;55.71;99679.59;5054512;28;19913;-77
2023/10/29 07:27:21;;;;;;;;;;;;;;;19.04;55.61;99685.91;5054572;28;19967;-77
2023/10/29 07:29:47;;;;;;;;;;;;;;;19.10;55.34;99667.28;5054053;28;19913;-78
2023/10/29 07:32:12;;;;;;;;;;;;;;;19.17;55.46;99684.06;5051469;28;19920;-78
2023/10/29 07:34:38;;;;;;;;;;;;;;;19.22;55.07;99684.19;5051499;28;19917;-77
2023/10/29 07:37:03;;;;;;;;;;;;;;;19.24;54.88;99682.91;5052874;28;19916;-78
2023/10/29 07:39:28;;;;;;;;;;;;;;;19.27;54.88;99684.31;5052898;28;19966;-77
2023/10/29 07:41:54;;;;;;;;;;;;;;;19.31;54.84;99686.28;5052791;28;20118;-77
2023/10/29 07:44:19;;;;;;;;;;;;;;;19.38;54.62;99686.22;5052677;28;19913;-77
2023/10/29 07:46:44;;;;;;;;;;;;;;;19.44;54.62;99689.81;5052787;28;19971;-78
2023/10/29 07:49:09;;;;;;;;;;;;;;;19.48;54.49;99688.31;5052813;28;19951;-77
2023/10/29 07:51:35;;;;;;;;;;;;;;;19.53;54.21;99691.94;5052603;28;20410;-78
2023/10/29 07:54:00;;;;;;;;;;;;;;;19.62;54.40;99685.19;5052562;28;20000;-78
2023/10/29 07:56:25;;;;;;;;;;;;;;;19.68;54.20;99686.94;5052515;28;20407;-78
2023/10/29 07:58:51;;;;;;;;;;;;;;;19.75;54.11;99681.47;5051279;28;19920;-77
2023/10/29 08:01:17;;;;;;;;;;;;;;;19.84;54.28;99688.09;5052473;28;19920;-79
2023/10/29 08:03:43;;;;;;;;;;;;;;;19.91;53.92;99694.13;5052469;28;19913;-77
2023/10/29 08:06:08;;;;;;;;;;;;;;;19.99;53.72;99692.97;5052369;28;19968;-78
2023/10/29 08:08:34;;;;;;;;;;;;;;;20.05;53.38;99699.25;5052236;28;20503;-77
2023/10/29 08:10:59;;;;;;;;;;;;;;;20.14;53.39;99693.31;5052275;28;19913;-77
2023/10/29 08:13:24;;;;;;;;;;;;;;;20.25;53.79;99695.16;5052117;28;20443;-78
2023/10/29 08:15:50;;;;;;;;;;;;;;;20.35;53.21;99693.72;5052099;28;19956;-75
2023/10/29 08:18:15;;;;;;;;;;;;;;;20.46;52.81;99692.91;5050508;28;19912;-78
2023/10/29 08:20:41;;;;;;;;;;;;;;;20.55;52.73;99694.16;5052067;28;19962;-76
2023/10/29 08:23:06;;;;;;;;;;;;;;;20.67;52.82;99686.88;5051980;28;20385;-76
2023/10/29 08:25:32;;;;;;;;;;;;;;;20.73;52.65;99690.44;5051993;28;19960;-76
2023/10/29 08:27:58;;;;;;;;;;;;;;;20.79;52.22;99687.63;5051878;28;19923;-76
2023/10/29 08:30:23;;;;;;;;;;;;;;;20.88;52.60;99688.06;5051926;28;19913;-77
2023/10/29 08:32:48;;;;;;;;;;;;;;;20.90;52.37;99689.47;5051738;28;20403;-76
2023/10/29 08:35:13;;;;;;;;;;;;;;;20.94;52.02;99690.59;5051544;28;19913;-76
2023/10/29 08:37:39;;;;;;;;;;;;;;;21.01;51.55;99689.63;5051483;28;20016;-76
2023/10/29 08:40:04;;;;;;;;;;;;;;;21.04;51.70;99694.53;5051653;28;20374;-78
2023/10/29 08:42:30;;;;;;;;;;;;;;;21.09;51.45;99698.09;5051600;28;19982;-76
2023/10/29 08:44:56;;;;;;;;;;;;;;;21.14;51.46;99700.06;5052031;28;19913;-77
2023/10/29 08:47:21;;;;;;;;;;;;;;;21.18;52.17;99704.69;5052085;28;19917;-78
2023/10/29 08:49:47;;;;;;;;;;;;;;;21.22;51.76;99705.03;5051501;28;19924;-79
2023/10/29 08:52:13;;;;;;;;;;;;;;;21.30;51.70;99701.16;5051635;28;19920;-77
2023/10/29 08:54:39;;;;;;;;;;;;;;;21.35;51.97;99699.38;5051392;28;19912;-75
2023/10/29 08:57:04;;;;;;;;;;;;;;;21.38;51.26;99698.88;5051601;28;19970;-77
2023/10/29 08:59:30;;;;;;;;;;;;;;;21.41;51.21;99703.75;5051623;28;19952;-77
2023/10/29 09:01:55;;;;;;;;;;;;;;;21.43;51.27;99700.81;5051590;28;19943;-77
2023/10/29 09:04:22;;;;;;;;;;;;;;;21.52;51.95;99694.78;5051722;28;19913;-77
2023/10/29 09:06:47;;;;;;;;;;;;;;;21.63;51.79;99705.72;5051638;28;20471;-78
2023/10/29 09:09:12;;;;;;;;;;;;;;;21.71;51.28;99703.44;5051553;28;19913;-78
2023/10/29 09:11:38;;;;;;;;;;;;;;;21.80;51.20;99707.31;5051594;28;19913;-78
2023/10/29 09:14:04;;;;;;;;;;;;;;;21.88;51.63;99709.59;5051289;28;19920;-79
2023/10/29 09:16:30;;;;;;;;;;;;;;;21.88;51.30;99700.72;5051322;28;19966;-76
2023/10/29 09:18:55;;;;;;;;;;;;;;;21.89;51.14;99702.34;5051382;28;19917;-77
2023/10/29 09:21:20;;;;;;;;;;;;;;;21.95;51.43;99703.22;5051390;28;19913;-77
2023/10/29 09:23:46;;;;;;;;;;;;;;;22.03;51.28;99695.56;5050070;28;20381;-77
2023/10/29 09:26:11;;;;;;;;;;;;;;;22.14;51.39;99691.94;5051306;28;19966;-77
2023/10/29 09:28:37;;;;;;;;;;;;;;;22.28;51.17;99694.25;5051308;28;19917;-78
2023/10/29 09:31:04;;;;;;;;;;;;;;;22.38;51.02;99699.78;5055228;28;20444;-75
2023/10/29 09:33:29;;;;;;;;;;;;;;;22.49;50.78;99698.84;5055114;28;19920;-76
2023/10/29 09:35:54;;;;;;;;;;;;;;;22.61;50.71;99696.00;5055126;28;19913;-77
2023/10/29 09:38:20;;;;;;;;;;;;;;;22.68;50.52;99689.34;5054978;28;20406;-76
2023/10/29 09:40:46;;;;;;;;;;;;;;;22.74;49.93;99693.72;5055108;28;19913;-76
2023/10/29 09:43:12;;;;;;;;;;;;;;;22.80;50.37;99691.94;5055069;28;19940;-77
2023/10/29 09:45:45;;;;;;;;;;;;;;;22.86;50.00;99692.78;5070315;28;20377;-76
2023/10/29 09:48:11;;;;;;;;;;;;;;;22.91;49.67;99690.94;5055196;28;20364;-77
2023/10/29 09:50:37;;;;;;;;;;;;;;;22.99;49.52;99689.69;5054731;28;19920;-77
2023/10/29 09:53:03;;;;;;;;;;;;;;;23.01;49.09;99695.63;5054699;28;19931;-78
2023/10/29 09:55:29;;;;;;;;;;;;;;;23.09;49.33;99695.19;5053060;28;19921;-76
2023/10/29 09:57:54;;;;;;;;;;;;;;;23.18;49.23;99690.13;5054696;28;20442;-77
2023/10/29 10:00:19;;;;;;;;;;;;;;;23.22;49.15;99691.25;5055277;28;19956;-77
2023/10/29 10:02:52;;;;;;;;;;;;;;;23.15;48.80;99688.78;5054990;28;19913;-78
2023/10/29 10:05:18;;;;;;;;;;;;;;;23.10;49.54;99686.84;5054647;28;19974;-77
2023/10/29 10:07:43;;;;;;;;;;;;;;;23.03;48.54;99688.91;5054664;28;19927;-75
2023/10/29 10:10:09;;;;;;;;;;;;;;;22.95;48.32;99680.50;5054472;28;19912;-78
2023/10/29 10:12:43;;;;;;;;;;;;;;;22.87;48.25;99680.94;5054432;28;19920;-79
2023/10/29 10:15:09;;;;;;;;;;;;;;;22.80;48.37;99683.84;5054357;28;19913;-77
2023/10/29 10:17:35;;;;;;;;;;;;;;;22.87;48.16;99676.38;5053380;28;19961;-78
2023/10/29 10:20:07;;;;;;;;;;;;;;;23.00;47.68;99678.66;5052794;28;19921;-78
2023/10/29 10:22:35;;;;;;;;;;;;;;;23.12;47.42;99675.81;5052768;28;20373;-78
2023/10/29 10:25:01;;;;;;;;;;;;;;;23.15;47.18;99669.91;5054025;28;19920;-77
2023/10/29 10:27:26;;;;;;;;;;;;;;;23.20;48.75;99672.66;5052647;28;19916;-78
2023/10/29 10:29:51;;;;;;;;;;;;;;;23.29;48.13;99671.09;5054007;28;20003;-78
2023/10/29 10:32:22;;;;;;;;;;;;;;;23.42;48.54;99676.03;5053995;28;19920;-76
2023/10/29 10:34:51;;;;;;;;;;;;;;;23.53;47.19;99670.72;5054021;28;19913;-78
2023/10/29 10:37:17;;;;;;;;;;;;;;;23.61;46.96;99671.09;5053871;28;19920;-76
2023/10/29 10:39:42;;;;;;;;;;;;;;;23.69;47.59;99670.59;5053781;28;20314;-78
2023/10/29 10:42:07;;;;;;;;;;;;;;;23.75;47.19;99663.34;5052723;28;19916;-77
2023/10/29 10:44:35;;;;;;;;;;;;;;;23.80;47.56;99649.91;5054246;28;19913;-76
2023/10/29 10:47:02;;;;;;;;;;;;;;;23.85;46.47;99639.16;5053719;28;20385;-78
2023/10/29 10:49:31;;;;;;;;;;;;;;;23.90;46.45;99636.47;5053534;28;19921;-78
2023/10/29 10:51:58;;;;;;;;;;;;;;;23.96;46.10;99642.72;5069017;28;20386;-78
2023/10/29 10:54:24;;;;;;;;;;;;;;;24.01;45.44;99632.75;5053643;28;19951;-76
2023/10/29 10:56:50;;;;;;;;;;;;;;;24.05;46.74;99633.03;5053927;28;19913;-77
2023/10/29 10:59:16;;;;;;;;;;;;;;;24.04;45.44;99634.13;5053645;28;19913;-78
2023/10/29 11:01:41;;;;;;;;;;;;;;;24.05;46.14;99630.34;5053451;28;19996;-78
2023/10/29 11:04:08;;;;;;;;;;;;;;;24.05;46.54;99631.16;5053596;28;19920;-78
2023/10/29 11:06:37;;;;;;;;;;;;;;;24.04;45.85;99628.72;5069015;28;19912;-76
2023/10/29 11:09:12;;;;;;;;;;;;;;;24.03;45.66;99627.09;5053499;28;19921;-77
2023/10/29 11:11:40;;;;;;;;;;;;;;;24.00;45.71;99619.53;5053424;28;20461;-77
2023/10/29 11:14:12;;;;;;;;;;;;;;;23.98;45.73;99621.69;5051950;28;19936;-76
2023/10/29 11:16:56;;;;;;;;;;;;;;;23.96;45.56;99624.63;5053296;28;19916;-78
2023/10/29 11:19:44;;;;;;;;;;;;;;;23.95;45.11;99628.41;5068445;28;20000;-77
2023/10/29 11:22:16;;;;;;;;;;;;;;;23.91;45.50;99627.31;5052917;28;19913;-78
2023/10/29 11:24:42;;;;;;;;;;;;;;;23.86;44.45;99631.88;5052718;28;19913;-77
2023/10/29 11:27:26;;;;;;;;;;;;;;;23.82;46.01;99628.91;5051425;28;19966;-77
2023/10/29 11:29:51;;;;;;;;;;;;;;;23.78;45.87;99630.47;5053128;28;19912;-78
2023/10/29 11:32:24;;;;;;;;;;;;;;;23.75;47.00;99647.16;5052977;28;19919;-78
2023/10/29 11:35:09;;;;;;;;;;;;;;;23.69;46.31;99637.44;5052655;28;19908;-77
2023/10/29 11:37:35;;;;;;;;;;;;;;;23.68;47.03;99633.91;5051056;28;19967;-77
2023/10/29 11:40:20;;;;;;;;;;;;;;;23.65;46.66;99637.13;5052807;28;19917;-78
2023/10/29 11:42:45;;;;;;;;;;;;;;;23.64;46.01;99637.41;5052519;28;19948;-78
2023/10/29 11:45:27;;;;;;;;;;;;;;;23.63;46.15;99638.47;5052790;28;19963;-77
2023/10/29 11:48:14;;;;;;;;;;;;;;;23.62;46.15;99624.19;5052438;28;20015;-78
2023/10/29 11:50:40;;;;;;;;;;;;;;;23.60;46.01;99628.22;5052306;28;19908;-78
2023/10/29 11:53:06;;;;;;;;;;;;;;;23.58;45.97;99619.56;5051704;28;19995;-77
2023/10/29 11:55:44;;;;;;;;;;;;;;;23.59;46.66;99618.50;5052161;28;20353;-77
2023/10/29 11:58:10;;;;;;;;;;;;;;;23.61;46.33;99613.66;5052164;28;20377;-77
2023/10/29 12:00:38;;;;;;;;;;;;;;;23.60;46.41;99615.53;5052150;28;19949;-77
2023/10/29 12:03:04;;;;;;;;;;;;;;;23.60;46.32;99610.16;5052076;28;19913;-77
2023/10/29 12:05:29;;;;;;;;;;;;;;;23.63;46.86;99608.81;5050634;28;19921;-78
2023/10/29 12:08:00;;;;;;;;;;;;;;;23.60;46.91;99615.53;5052008;28;19921;-78
2023/10/29 12:10:26;;;;;;;;;;;;;;;23.61;46.69;99603.69;5052065;28;19913;-78
2023/10/29 12:12:53;;;;;;;;;;;;;;;23.59;46.93;99603.16;5052154;28;19924;-78
2023/10/29 12:15:18;;;;;;;;;;;;;;;23.57;46.34;99613.38;5052027;28;19917;-77
2023/10/29 12:17:45;;;;;;;;;;;;;;;23.58;46.44;99611.50;5052046;28;19912;-77
2023/10/29 12:20:19;;;;;;;;;;;;;;;23.57;45.26;99610.69;5051918;28;19944;-78
2023/10/29 12:22:45;;;;;;;;;;;;;;;23.56;46.22;99608.25;5051963;28;19913;-77
2023/10/29 12:25:11;;;;;;;;;;;;;;;23.55;45.57;99595.84;5052043;28;19913;-78
2023/10/29 12:27:43;;;;;;;;;;;;;;;23.54;47.19;99595.00;5050690;28;20376;-78
2023/10/29 12:30:09;;;;;;;;;;;;;;;23.55;46.85;99595.84;5051949;28;19938;-77
2023/10/29 12:32:34;;;;;;;;;;;;;;;23.59;47.23;99605.03;5052017;28;20398;-78
2023/10/29 12:34:59;;;;;;;;;;;;;;;23.56;47.15;99598.28;5051932;28;19913;-77
2023/10/29 12:37:25;;;;;;;;;;;;;;;23.56;46.62;99598.28;5050507;28;19924;-77
2023/10/29 12:39:55;;;;;;;;;;;;;;;23.56;46.64;99598.28;5052095;28;19921;-78
2023/10/29 12:42:21;;;;;;;;;;;;;;;23.58;47.17;99601.53;5051940;28;19912;-77